Terminal Aerodrome Forecast
Issued by NWS Caribou, ME

Home | Current Version | Previous Version | Text Only | Print | Product List | Glossary On
Versions: 1 2 3 4 5 6 7 8 9 10 11 12 13
000
FTUS41 KCAR 130500
TAFCAR
TAF
KCAR 130531Z 1306/1406 19004KT P6SM SCT250
     FM131700 19009KT P6SM BKN080 OVC120
     FM132100 18010KT P6SM -SHRA OVC050
     FM140100 18010KT P6SM -SHRA OVC020
     FM140500 18008KT 3SM BR OVC008=

USA.gov is the U.S. government's official web portal to all federal, state and local government web resources and services.